Shabbona, IL (60550)

12:46 AM CST on November 27, 2014 (GMT -0600)
Northern Illinois University | Change Station
CLOSE
Current Station
Personal Weather Station
Location: DeKalb, IL
Elevation: 879 ft
Nearby Weather Stations

Elev 879 ft 41.93 °N, 88.78 °W | Updated 3 seconds ago

Partly Cloudy
Partly Cloudy
18.6 °F
Feels Like 19 °F
N
0.0
Wind Variable Wind from North
Gusts 0.0 mph

Today
High -- | Low -- °F
--% Chance of Precip.
Yesterday
High -- | Low -- °F
Precip. -- in
6:58 AM 4:27 PM
Waxing Crescent, 26% visible
Pressure 30.21 in
Visibility 4.0 miles
Clouds Clear
Windchill 19 °F
Dew Point 16 °F
Humidity 89%
Rainfall 0.00 in
Snow Depth Not available.
UV 0 out of 12
Pollen .10 out of 12
Air Quality Not available.
Flu Activity Not available.
METAR KDKB 270635Z AUTO 33004KT 4SM BR CLR M08/M09 A3021 RMK AO2 T10801093

More Conditions Fewer Conditions

Pressure 30.21 in
Visibility 4.0 miles
Clouds Clear
Windchill 19 °F
Dew Point 16 °F
Humidity 89%
Rainfall 0.00 in
Snow Depth Not available.
UV 0 out of 12
Pollen .10 out of 12
Air Quality Not available.
Flu Activity Not available.
METAR KDKB 270635Z AUTO 33004KT 4SM BR CLR M08/M09 A3021 RMK AO2 T10801093

More Conditions Fewer Conditions

10-Day Weather Forecast

Almanac

Astronomy

Nov. 27, 2014 Rise Set
Actual Time
Civil Twilight
Nautical Twilight
Astronomical Twilight
Moon
Length of Visible Light
Length of Day
Tomorrow will be .
, % of the Moon is Illuminated

Today's Extremes

State Highs State Lows

Community

WunderPhotos

Upload Photos

1,773,962 photos uploaded!

WunderBlogs® & News

Nearby

Air Quality

  Air Quality AQ Index Pollutant
Not available.

Snow Depth

Station Depth Elevation

Earthquake Activity

City Distance Mag. Time & Date
Minimum magnitude displayed is 2.5.

Coastal Water Temperatures

Place Temperature

Nearby Weather Stations